PLT2811 SBIL-SBSP
Flight info
| Callsign | PLT2811 |
|---|---|
| Flight time | 1h 54m |
| Altitude | 36000 |
| Route | DENDE DCT OBDUV DCT MIMIP UZ30 ENTIT |
| Aircraft | A20N/M-SDE2E3FGHIRWXY/LB1 |
Departure
| Time | 2026-04-21 10:28 |
|---|---|
| Airport | Bahia - Jorge Amado Airport (SBIL) |
Arrival
| Time | 2026-04-21 12:23 |
|---|---|
| Airport | Congonhas–Deputado Freitas Nobre Airport (SBSP) |
| Time | Latitude | Longitude | Altitude | Speed | Heading |
|---|---|---|---|---|---|
| 2026-04-21 10:15 | -14.81444 | -39.03143 | 26 ft | 0 kts | 47° |
| 2026-04-21 10:21 | -14.81451 | -39.03150 | 26 ft | 2 kts | 47° |
| 2026-04-21 10:21 | -14.81461 | -39.03162 | 26 ft | 2 kts | 47° |
| 2026-04-21 10:21 | -14.81471 | -39.03173 | 26 ft | 2 kts | 47° |
| 2026-04-21 10:22 | -14.81480 | -39.03186 | 26 ft | 2 kts | 75° |
| 2026-04-21 10:22 | -14.81482 | -39.03194 | 26 ft | 1 kts | 89° |
| 2026-04-21 10:22 | -14.81482 | -39.03201 | 26 ft | 0 kts | 90° |
| 2026-04-21 10:22 | -14.81482 | -39.03200 | 26 ft | 0 kts | 90° |
| 2026-04-21 10:25 | -14.81482 | -39.03196 | 26 ft | 1 kts | 90° |
| 2026-04-21 10:25 | -14.81481 | -39.03182 | 26 ft | 3 kts | 88° |
| 2026-04-21 10:25 | -14.81480 | -39.03137 | 26 ft | 8 kts | 88° |
| 2026-04-21 10:25 | -14.81498 | -39.03091 | 26 ft | 0 kts | 150° |
| 2026-04-21 10:26 | -14.81506 | -39.03086 | 26 ft | 2 kts | 152° |
| 2026-04-21 10:26 | -14.81533 | -39.03081 | 26 ft | 7 kts | 169° |
| 2026-04-21 10:26 | -14.81578 | -39.03028 | 26 ft | 14 kts | 97° |
| 2026-04-21 10:27 | -14.81578 | -39.02903 | 26 ft | 20 kts | 88° |
| 2026-04-21 10:27 | -14.81574 | -39.02741 | 26 ft | 23 kts | 87° |
| 2026-04-21 10:27 | -14.81601 | -39.02620 | 26 ft | 12 kts | 90° |
| 2026-04-21 10:27 | -14.81577 | -39.02638 | 26 ft | 7 kts | 288° |
| 2026-04-21 10:28 | -14.81577 | -39.02837 | 26 ft | 64 kts | 268° |
| 2026-04-21 10:28 | -14.81597 | -39.03551 | 26 ft | 132 kts | 268° |
| 2026-04-21 10:28 | -14.81620 | -39.04587 | 352 ft | 150 kts | 265° |
| 2026-04-21 10:28 | -14.81641 | -39.05636 | 995 ft | 145 kts | 264° |
| 2026-04-21 10:29 | -14.81668 | -39.06668 | 1590 ft | 145 kts | 262° |
| 2026-04-21 10:29 | -14.81913 | -39.07644 | 1983 ft | 143 kts | 220° |
| 2026-04-21 10:29 | -14.82797 | -39.08098 | 2284 ft | 146 kts | 186° |
| 2026-04-21 10:29 | -14.83822 | -39.08433 | 2560 ft | 169 kts | 211° |
| 2026-04-21 10:30 | -14.84761 | -39.09291 | 2927 ft | 189 kts | 221° |
| 2026-04-21 10:30 | -14.85706 | -39.10303 | 3323 ft | 206 kts | 223° |
| 2026-04-21 10:30 | -14.86749 | -39.11402 | 3713 ft | 224 kts | 222° |
| 2026-04-21 10:30 | -14.87921 | -39.12594 | 4061 ft | 247 kts | 221° |
| 2026-04-21 10:31 | -14.89213 | -39.13878 | 4539 ft | 265 kts | 221° |
| 2026-04-21 10:31 | -14.90573 | -39.15214 | 5170 ft | 276 kts | 221° |
| 2026-04-21 10:31 | -14.91976 | -39.16588 | 5965 ft | 280 kts | 221° |
| 2026-04-21 10:31 | -14.93407 | -39.17979 | 6758 ft | 284 kts | 221° |
| 2026-04-21 10:32 | -14.94846 | -39.19372 | 7532 ft | 287 kts | 221° |
| 2026-04-21 10:32 | -14.96312 | -39.20790 | 8313 ft | 290 kts | 221° |
| 2026-04-21 10:32 | -14.97778 | -39.22208 | 9053 ft | 292 kts | 222° |
| 2026-04-21 10:32 | -14.99271 | -39.23653 | 9766 ft | 296 kts | 222° |
| 2026-04-21 10:33 | -15.00782 | -39.25113 | 10441 ft | 300 kts | 222° |
| 2026-04-21 10:33 | -15.02351 | -39.26632 | 10820 ft | 316 kts | 222° |
| 2026-04-21 10:33 | -15.03986 | -39.28216 | 11117 ft | 333 kts | 222° |
| 2026-04-21 10:33 | -15.05720 | -39.29896 | 11591 ft | 342 kts | 223° |
| 2026-04-21 10:34 | -15.07472 | -39.31592 | 12257 ft | 345 kts | 223° |
| 2026-04-21 10:34 | -15.09209 | -39.33273 | 12914 ft | 347 kts | 223° |
| 2026-04-21 10:34 | -15.10976 | -39.34982 | 13560 ft | 349 kts | 224° |
| 2026-04-21 10:34 | -15.12752 | -39.36707 | 14211 ft | 350 kts | 224° |
| 2026-04-21 10:35 | -15.14546 | -39.38449 | 14825 ft | 352 kts | 224° |
| 2026-04-21 10:35 | -15.16332 | -39.40182 | 15412 ft | 354 kts | 224° |
| 2026-04-21 10:35 | -15.18140 | -39.41936 | 16014 ft | 355 kts | 224° |
| 2026-04-21 10:35 | -15.19928 | -39.43673 | 16575 ft | 357 kts | 224° |
| 2026-04-21 10:36 | -15.21753 | -39.45443 | 17137 ft | 359 kts | 224° |
| 2026-04-21 10:36 | -15.23593 | -39.47229 | 17669 ft | 361 kts | 224° |
| 2026-04-21 10:36 | -15.25420 | -39.49004 | 18111 ft | 366 kts | 224° |
| 2026-04-21 10:36 | -15.27265 | -39.50851 | 18546 ft | 371 kts | 227° |
| 2026-04-21 10:37 | -15.28991 | -39.52840 | 19017 ft | 374 kts | 231° |
| 2026-04-21 10:37 | -15.30583 | -39.54990 | 19505 ft | 376 kts | 235° |
| 2026-04-21 10:37 | -15.32084 | -39.57216 | 19988 ft | 379 kts | 236° |
| 2026-04-21 10:37 | -15.33584 | -39.59468 | 20455 ft | 381 kts | 236° |
| 2026-04-21 10:38 | -15.35098 | -39.61745 | 20927 ft | 384 kts | 236° |
| 2026-04-21 10:38 | -15.36621 | -39.64034 | 21375 ft | 387 kts | 236° |
| 2026-04-21 10:38 | -15.38146 | -39.66323 | 21831 ft | 389 kts | 236° |
| 2026-04-21 10:38 | -15.39687 | -39.68637 | 22306 ft | 391 kts | 236° |
| 2026-04-21 10:39 | -15.41243 | -39.70972 | 22756 ft | 394 kts | 236° |
| 2026-04-21 10:39 | -15.42803 | -39.73318 | 23142 ft | 397 kts | 236° |
| 2026-04-21 10:39 | -15.44366 | -39.75667 | 23536 ft | 400 kts | 235° |
| 2026-04-21 10:39 | -15.45943 | -39.78039 | 23947 ft | 402 kts | 235° |
| 2026-04-21 10:40 | -15.47555 | -39.80461 | 24340 ft | 405 kts | 235° |
| 2026-04-21 10:40 | -15.49159 | -39.82870 | 24697 ft | 408 kts | 234° |
| 2026-04-21 10:40 | -15.50773 | -39.85297 | 25080 ft | 410 kts | 234° |
| 2026-04-21 10:40 | -15.52397 | -39.87738 | 25471 ft | 412 kts | 234° |
| 2026-04-21 10:41 | -15.54026 | -39.90186 | 25825 ft | 414 kts | 234° |
| 2026-04-21 10:41 | -15.55655 | -39.92634 | 26144 ft | 417 kts | 234° |
| 2026-04-21 10:41 | -15.57310 | -39.95123 | 26468 ft | 420 kts | 234° |
| 2026-04-21 10:41 | -15.58981 | -39.97637 | 26777 ft | 422 kts | 233° |
| 2026-04-21 10:42 | -15.60634 | -40.00129 | 27078 ft | 424 kts | 233° |
| 2026-04-21 10:42 | -15.62327 | -40.02681 | 27390 ft | 426 kts | 233° |
| 2026-04-21 10:42 | -15.63997 | -40.05197 | 27678 ft | 428 kts | 233° |
| 2026-04-21 10:42 | -15.65696 | -40.07758 | 27945 ft | 431 kts | 233° |
| 2026-04-21 10:43 | -15.67395 | -40.10317 | 28214 ft | 433 kts | 232° |
| 2026-04-21 10:43 | -15.69109 | -40.12904 | 28479 ft | 436 kts | 232° |
| 2026-04-21 10:43 | -15.70839 | -40.15512 | 28742 ft | 438 kts | 232° |
| 2026-04-21 10:43 | -15.72560 | -40.18115 | 29105 ft | 438 kts | 232° |
| 2026-04-21 10:44 | -15.74275 | -40.20703 | 29490 ft | 438 kts | 232° |
| 2026-04-21 10:44 | -15.75995 | -40.23303 | 29876 ft | 437 kts | 231° |
| 2026-04-21 10:44 | -15.77719 | -40.25910 | 30269 ft | 436 kts | 231° |
| 2026-04-21 10:44 | -15.79434 | -40.28504 | 30680 ft | 435 kts | 231° |
| 2026-04-21 10:45 | -15.81140 | -40.31084 | 31068 ft | 434 kts | 230° |
| 2026-04-21 10:45 | -15.82847 | -40.33669 | 31436 ft | 434 kts | 230° |
| 2026-04-21 10:45 | -15.84565 | -40.36264 | 31809 ft | 434 kts | 230° |
| 2026-04-21 10:45 | -15.86268 | -40.38842 | 32194 ft | 432 kts | 230° |
| 2026-04-21 10:46 | -15.87971 | -40.41421 | 32604 ft | 431 kts | 230° |
| 2026-04-21 10:46 | -15.89659 | -40.43979 | 32993 ft | 429 kts | 230° |
| 2026-04-21 10:46 | -15.91331 | -40.46508 | 33326 ft | 429 kts | 230° |
| 2026-04-21 10:46 | -15.93032 | -40.49081 | 33703 ft | 428 kts | 230° |
| 2026-04-21 10:47 | -15.94703 | -40.51611 | 34097 ft | 426 kts | 230° |
| 2026-04-21 10:47 | -15.96380 | -40.54154 | 34442 ft | 425 kts | 230° |
| 2026-04-21 10:47 | -15.98042 | -40.56673 | 34732 ft | 425 kts | 230° |
| 2026-04-21 10:47 | -15.99718 | -40.59216 | 35010 ft | 425 kts | 230° |
| 2026-04-21 10:48 | -16.01374 | -40.61728 | 35243 ft | 425 kts | 230° |
| 2026-04-21 10:48 | -16.03048 | -40.64271 | 35473 ft | 425 kts | 231° |
| 2026-04-21 10:48 | -16.04729 | -40.66822 | 35685 ft | 426 kts | 231° |
| 2026-04-21 10:48 | -16.06401 | -40.69365 | 35859 ft | 427 kts | 231° |
| 2026-04-21 10:49 | -16.08063 | -40.71894 | 36037 ft | 427 kts | 231° |
| 2026-04-21 10:49 | -16.11422 | -40.77007 | 36106 ft | 428 kts | 231° |
| 2026-04-21 10:50 | -16.14782 | -40.82125 | 36104 ft | 429 kts | 231° |
| 2026-04-21 10:50 | -16.18146 | -40.87249 | 36105 ft | 428 kts | 231° |
| 2026-04-21 10:51 | -16.21486 | -40.92343 | 36106 ft | 427 kts | 231° |
| 2026-04-21 10:51 | -16.24787 | -40.97381 | 36103 ft | 428 kts | 231° |
| 2026-04-21 10:52 | -16.28128 | -41.02482 | 36101 ft | 428 kts | 231° |
| 2026-04-21 10:52 | -16.31477 | -41.07600 | 36108 ft | 428 kts | 231° |
| 2026-04-21 10:53 | -16.34822 | -41.12716 | 36111 ft | 428 kts | 231° |
| 2026-04-21 10:53 | -16.38179 | -41.17853 | 36110 ft | 428 kts | 231° |
| 2026-04-21 10:54 | -16.41501 | -41.22939 | 36111 ft | 427 kts | 231° |
| 2026-04-21 10:54 | -16.44846 | -41.28067 | 36105 ft | 427 kts | 231° |
| 2026-04-21 10:55 | -16.48183 | -41.33183 | 36102 ft | 426 kts | 231° |
| 2026-04-21 10:55 | -16.51517 | -41.38296 | 36102 ft | 426 kts | 231° |
| 2026-04-21 10:56 | -16.54828 | -41.43380 | 36105 ft | 426 kts | 231° |
| 2026-04-21 10:56 | -16.58140 | -41.48473 | 36107 ft | 426 kts | 232° |
| 2026-04-21 10:57 | -16.61463 | -41.53581 | 36110 ft | 425 kts | 232° |
| 2026-04-21 10:57 | -16.64778 | -41.58684 | 36111 ft | 425 kts | 232° |
| 2026-04-21 10:58 | -16.68107 | -41.63812 | 36115 ft | 426 kts | 232° |
| 2026-04-21 10:58 | -16.71420 | -41.68917 | 36116 ft | 425 kts | 232° |
| 2026-04-21 10:59 | -16.74727 | -41.74019 | 36120 ft | 425 kts | 232° |
| 2026-04-21 10:59 | -16.78022 | -41.79104 | 36119 ft | 424 kts | 232° |
| 2026-04-21 11:00 | -16.81322 | -41.84205 | 36118 ft | 424 kts | 232° |
| 2026-04-21 11:00 | -16.84630 | -41.89320 | 36111 ft | 424 kts | 232° |
| 2026-04-21 11:01 | -16.88136 | -41.94259 | 36113 ft | 421 kts | 226° |
| 2026-04-21 11:01 | -16.92075 | -41.98765 | 36111 ft | 419 kts | 223° |
| 2026-04-21 11:02 | -16.98146 | -42.05336 | 36112 ft | 419 kts | 223° |
| 2026-04-21 11:02 | -17.02020 | -42.09538 | 36116 ft | 418 kts | 223° |
| 2026-04-21 11:03 | -17.06054 | -42.13920 | 36116 ft | 417 kts | 223° |
| 2026-04-21 11:03 | -17.10074 | -42.18289 | 36118 ft | 417 kts | 223° |
| 2026-04-21 11:04 | -17.14102 | -42.22671 | 36118 ft | 416 kts | 223° |
| 2026-04-21 11:04 | -17.18119 | -42.27043 | 36120 ft | 418 kts | 223° |
| 2026-04-21 11:05 | -17.22125 | -42.31405 | 36122 ft | 417 kts | 223° |
| 2026-04-21 11:05 | -17.26144 | -42.35784 | 36126 ft | 417 kts | 223° |
| 2026-04-21 11:06 | -17.30160 | -42.40162 | 36126 ft | 417 kts | 223° |
| 2026-04-21 11:06 | -17.34190 | -42.44561 | 36132 ft | 416 kts | 223° |
| 2026-04-21 11:07 | -17.38038 | -42.48764 | 36135 ft | 417 kts | 223° |
| 2026-04-21 11:07 | -17.42057 | -42.53155 | 36136 ft | 416 kts | 223° |
| 2026-04-21 11:08 | -17.46064 | -42.57536 | 36137 ft | 416 kts | 224° |
| 2026-04-21 11:08 | -17.50055 | -42.61902 | 36133 ft | 416 kts | 223° |
| 2026-04-21 11:09 | -17.54077 | -42.66304 | 36133 ft | 417 kts | 224° |
| 2026-04-21 11:09 | -17.58080 | -42.70689 | 36135 ft | 416 kts | 224° |
| 2026-04-21 11:10 | -17.61904 | -42.74882 | 36135 ft | 415 kts | 224° |
| 2026-04-21 11:10 | -17.65881 | -42.79245 | 36137 ft | 416 kts | 224° |
| 2026-04-21 11:11 | -17.69900 | -42.83656 | 36143 ft | 416 kts | 224° |
| 2026-04-21 11:11 | -17.73898 | -42.88048 | 36148 ft | 417 kts | 224° |
| 2026-04-21 11:12 | -17.77821 | -42.92362 | 36148 ft | 417 kts | 224° |
| 2026-04-21 11:12 | -17.81829 | -42.96770 | 36151 ft | 417 kts | 224° |
| 2026-04-21 11:13 | -17.85776 | -43.01113 | 36151 ft | 417 kts | 224° |
| 2026-04-21 11:13 | -17.89788 | -43.05535 | 36150 ft | 416 kts | 224° |
| 2026-04-21 11:14 | -17.93768 | -43.09923 | 36154 ft | 416 kts | 224° |
| 2026-04-21 11:14 | -17.97771 | -43.14338 | 36150 ft | 417 kts | 224° |
| 2026-04-21 11:15 | -18.01771 | -43.18753 | 36156 ft | 417 kts | 224° |
| 2026-04-21 11:15 | -18.05776 | -43.23179 | 36158 ft | 418 kts | 224° |
| 2026-04-21 11:16 | -18.09780 | -43.27604 | 36153 ft | 417 kts | 224° |
| 2026-04-21 11:16 | -18.13725 | -43.31967 | 36154 ft | 417 kts | 224° |
| 2026-04-21 11:17 | -18.17697 | -43.36366 | 36158 ft | 417 kts | 224° |
| 2026-04-21 11:17 | -18.21735 | -43.40838 | 36154 ft | 419 kts | 224° |
| 2026-04-21 11:18 | -18.25725 | -43.45261 | 36153 ft | 419 kts | 224° |
| 2026-04-21 11:18 | -18.29751 | -43.49729 | 36158 ft | 418 kts | 224° |
| 2026-04-21 11:19 | -18.33753 | -43.54171 | 36158 ft | 418 kts | 224° |
| 2026-04-21 11:19 | -18.37758 | -43.58619 | 36163 ft | 418 kts | 224° |
| 2026-04-21 11:20 | -18.41740 | -43.63047 | 36162 ft | 418 kts | 224° |
| 2026-04-21 11:20 | -18.45756 | -43.67513 | 36165 ft | 419 kts | 225° |
| 2026-04-21 11:21 | -18.49766 | -43.71980 | 36166 ft | 420 kts | 225° |
| 2026-04-21 11:21 | -18.53786 | -43.76460 | 36169 ft | 419 kts | 225° |
| 2026-04-21 11:22 | -18.57790 | -43.80924 | 36167 ft | 419 kts | 225° |
| 2026-04-21 11:22 | -18.61779 | -43.85376 | 36163 ft | 420 kts | 225° |
| 2026-04-21 11:23 | -18.65782 | -43.89845 | 36154 ft | 419 kts | 225° |
| 2026-04-21 11:23 | -18.69792 | -43.94325 | 36146 ft | 419 kts | 225° |
| 2026-04-21 11:24 | -18.73785 | -43.98791 | 36131 ft | 419 kts | 225° |
| 2026-04-21 11:24 | -18.77813 | -44.03300 | 36121 ft | 420 kts | 225° |
| 2026-04-21 11:25 | -18.81812 | -44.07778 | 36117 ft | 421 kts | 225° |
| 2026-04-21 11:25 | -18.85844 | -44.12297 | 36120 ft | 421 kts | 225° |
| 2026-04-21 11:26 | -18.89846 | -44.16786 | 36120 ft | 421 kts | 225° |
| 2026-04-21 11:26 | -18.93855 | -44.21285 | 36119 ft | 421 kts | 225° |
| 2026-04-21 11:27 | -18.97881 | -44.25807 | 36125 ft | 422 kts | 225° |
| 2026-04-21 11:27 | -19.01904 | -44.30331 | 36130 ft | 421 kts | 225° |
| 2026-04-21 11:28 | -19.05898 | -44.34824 | 36130 ft | 421 kts | 225° |
| 2026-04-21 11:28 | -19.09903 | -44.39334 | 36132 ft | 421 kts | 225° |
| 2026-04-21 11:29 | -19.13929 | -44.43870 | 36136 ft | 421 kts | 225° |
| 2026-04-21 11:29 | -19.17925 | -44.48375 | 36137 ft | 422 kts | 225° |
| 2026-04-21 11:30 | -19.21962 | -44.52932 | 36139 ft | 422 kts | 226° |
| 2026-04-21 11:30 | -19.25962 | -44.57447 | 36139 ft | 422 kts | 226° |
| 2026-04-21 11:31 | -19.29965 | -44.61973 | 36137 ft | 423 kts | 226° |
| 2026-04-21 11:31 | -19.34000 | -44.66540 | 36137 ft | 422 kts | 226° |
| 2026-04-21 11:32 | -19.37993 | -44.71058 | 36138 ft | 422 kts | 226° |
| 2026-04-21 11:32 | -19.42004 | -44.75603 | 36139 ft | 422 kts | 226° |
| 2026-04-21 11:33 | -19.46042 | -44.80180 | 36136 ft | 423 kts | 226° |
| 2026-04-21 11:33 | -19.50046 | -44.84726 | 36134 ft | 424 kts | 226° |
| 2026-04-21 11:34 | -19.54224 | -44.89102 | 36134 ft | 423 kts | 221° |
| 2026-04-21 11:34 | -19.58769 | -44.93103 | 36135 ft | 421 kts | 219° |
| 2026-04-21 11:35 | -19.63326 | -44.97027 | 36133 ft | 422 kts | 219° |
| 2026-04-21 11:35 | -19.67867 | -45.00945 | 36131 ft | 422 kts | 219° |
| 2026-04-21 11:36 | -19.72431 | -45.04891 | 36133 ft | 421 kts | 219° |
| 2026-04-21 11:36 | -19.76967 | -45.08816 | 36132 ft | 422 kts | 219° |
| 2026-04-21 11:37 | -19.81547 | -45.12782 | 36137 ft | 423 kts | 219° |
| 2026-04-21 11:37 | -19.86085 | -45.16714 | 36140 ft | 423 kts | 219° |
| 2026-04-21 11:38 | -19.90658 | -45.20678 | 36142 ft | 424 kts | 219° |
| 2026-04-21 11:38 | -19.95237 | -45.24651 | 36144 ft | 423 kts | 219° |
| 2026-04-21 11:39 | -19.99804 | -45.28615 | 36146 ft | 423 kts | 219° |
| 2026-04-21 11:39 | -20.04361 | -45.32577 | 36145 ft | 423 kts | 219° |
| 2026-04-21 11:40 | -20.08931 | -45.36551 | 36145 ft | 423 kts | 219° |
| 2026-04-21 11:40 | -20.13504 | -45.40530 | 36147 ft | 423 kts | 219° |
| 2026-04-21 11:41 | -20.18032 | -45.44473 | 36149 ft | 422 kts | 219° |
| 2026-04-21 11:41 | -20.22596 | -45.48452 | 36149 ft | 422 kts | 219° |
| 2026-04-21 11:42 | -20.27119 | -45.52401 | 36149 ft | 422 kts | 219° |
| 2026-04-21 11:42 | -20.31690 | -45.56393 | 36151 ft | 422 kts | 218° |
| 2026-04-21 11:43 | -20.36200 | -45.60334 | 36152 ft | 421 kts | 219° |
| 2026-04-21 11:43 | -20.40759 | -45.64322 | 36153 ft | 421 kts | 218° |
| 2026-04-21 11:44 | -20.45273 | -45.68274 | 36152 ft | 422 kts | 219° |
| 2026-04-21 11:44 | -20.49808 | -45.72247 | 36153 ft | 421 kts | 219° |
| 2026-04-21 11:45 | -20.54361 | -45.76242 | 36151 ft | 422 kts | 219° |
| 2026-04-21 11:45 | -20.58864 | -45.80196 | 36152 ft | 421 kts | 219° |
| 2026-04-21 11:46 | -20.63390 | -45.84171 | 36155 ft | 421 kts | 219° |
| 2026-04-21 11:46 | -20.67924 | -45.88160 | 36157 ft | 421 kts | 219° |
| 2026-04-21 11:47 | -20.72457 | -45.92147 | 36159 ft | 420 kts | 219° |
| 2026-04-21 11:47 | -20.76936 | -45.96088 | 36156 ft | 420 kts | 219° |
| 2026-04-21 11:48 | -20.81368 | -45.99989 | 36155 ft | 420 kts | 219° |
| 2026-04-21 11:48 | -20.85850 | -46.03938 | 36154 ft | 420 kts | 219° |
| 2026-04-21 11:49 | -20.90355 | -46.07914 | 36154 ft | 420 kts | 219° |
| 2026-04-21 11:49 | -20.95071 | -46.11611 | 36154 ft | 420 kts | 212° |
| 2026-04-21 11:50 | -21.00126 | -46.14685 | 36159 ft | 418 kts | 206° |
| 2026-04-21 11:50 | -21.05506 | -46.17128 | 36162 ft | 418 kts | 200° |
| 2026-04-21 11:51 | -21.11009 | -46.19103 | 36166 ft | 418 kts | 199° |
| 2026-04-21 11:51 | -21.16549 | -46.21053 | 36169 ft | 417 kts | 199° |
| 2026-04-21 11:52 | -21.22065 | -46.22930 | 36171 ft | 417 kts | 198° |
| 2026-04-21 11:52 | -21.27618 | -46.24810 | 36174 ft | 417 kts | 198° |
| 2026-04-21 11:53 | -21.33152 | -46.26690 | 36175 ft | 417 kts | 198° |
| 2026-04-21 11:53 | -21.38677 | -46.28571 | 36175 ft | 417 kts | 198° |
| 2026-04-21 11:54 | -21.44143 | -46.30434 | 36177 ft | 416 kts | 198° |
| 2026-04-21 11:54 | -21.49650 | -46.32313 | 36178 ft | 415 kts | 198° |
| 2026-04-21 11:55 | -21.55183 | -46.34201 | 36182 ft | 415 kts | 198° |
| 2026-04-21 11:55 | -21.60708 | -46.36091 | 36187 ft | 415 kts | 198° |
| 2026-04-21 11:56 | -21.66209 | -46.37974 | 36193 ft | 414 kts | 199° |
| 2026-04-21 11:56 | -21.71668 | -46.39968 | 36202 ft | 414 kts | 200° |
| 2026-04-21 11:57 | -21.77108 | -46.41976 | 36212 ft | 414 kts | 200° |
| 2026-04-21 11:57 | -21.82575 | -46.43990 | 36219 ft | 413 kts | 200° |
| 2026-04-21 11:58 | -21.88004 | -46.45987 | 36217 ft | 413 kts | 200° |
| 2026-04-21 11:58 | -21.90721 | -46.46987 | 36110 ft | 413 kts | 200° |
| 2026-04-21 11:58 | -21.93440 | -46.47989 | 35821 ft | 411 kts | 200° |
| 2026-04-21 11:59 | -21.96143 | -46.48984 | 35534 ft | 408 kts | 200° |
| 2026-04-21 11:59 | -21.98819 | -46.49970 | 35246 ft | 405 kts | 200° |
| 2026-04-21 11:59 | -22.01518 | -46.50964 | 34918 ft | 404 kts | 200° |
| 2026-04-21 11:59 | -22.04171 | -46.51941 | 34498 ft | 404 kts | 199° |
| 2026-04-21 12:00 | -22.06829 | -46.52923 | 33979 ft | 406 kts | 199° |
| 2026-04-21 12:00 | -22.09492 | -46.53907 | 33373 ft | 407 kts | 199° |
| 2026-04-21 12:00 | -22.12182 | -46.54899 | 32747 ft | 407 kts | 199° |
| 2026-04-21 12:00 | -22.14885 | -46.55895 | 32105 ft | 408 kts | 199° |
| 2026-04-21 12:01 | -22.17547 | -46.56878 | 31451 ft | 409 kts | 199° |
| 2026-04-21 12:01 | -22.20245 | -46.57872 | 30769 ft | 411 kts | 199° |
| 2026-04-21 12:01 | -22.22964 | -46.58876 | 30075 ft | 413 kts | 199° |
| 2026-04-21 12:01 | -22.25743 | -46.59903 | 29357 ft | 416 kts | 199° |
| 2026-04-21 12:02 | -22.28477 | -46.60914 | 28652 ft | 419 kts | 199° |
| 2026-04-21 12:02 | -22.33976 | -46.62948 | 27657 ft | 415 kts | 199° |
| 2026-04-21 12:02 | -22.36700 | -46.63957 | 27188 ft | 412 kts | 199° |
| 2026-04-21 12:03 | -22.39376 | -46.65032 | 26707 ft | 409 kts | 205° |
| 2026-04-21 12:03 | -22.41901 | -46.66486 | 26225 ft | 406 kts | 213° |
| 2026-04-21 12:03 | -22.44163 | -46.68274 | 25750 ft | 403 kts | 221° |
| 2026-04-21 12:03 | -22.46233 | -46.70293 | 25283 ft | 401 kts | 223° |
| 2026-04-21 12:04 | -22.48259 | -46.72350 | 24811 ft | 398 kts | 224° |
| 2026-04-21 12:04 | -22.50262 | -46.74391 | 24339 ft | 396 kts | 223° |
| 2026-04-21 12:04 | -22.52260 | -46.76418 | 23866 ft | 393 kts | 223° |
| 2026-04-21 12:04 | -22.54273 | -46.78453 | 23395 ft | 391 kts | 223° |
| 2026-04-21 12:05 | -22.56229 | -46.80430 | 23023 ft | 386 kts | 223° |
| 2026-04-21 12:05 | -22.58212 | -46.82434 | 23036 ft | 386 kts | 223° |
| 2026-04-21 12:05 | -22.60159 | -46.84405 | 23062 ft | 387 kts | 223° |
| 2026-04-21 12:05 | -22.62132 | -46.86401 | 23087 ft | 389 kts | 223° |
| 2026-04-21 12:06 | -22.64128 | -46.88421 | 23112 ft | 389 kts | 223° |
| 2026-04-21 12:06 | -22.66143 | -46.90393 | 23133 ft | 389 kts | 220° |
| 2026-04-21 12:06 | -22.68251 | -46.92211 | 23147 ft | 389 kts | 217° |
| 2026-04-21 12:06 | -22.70469 | -46.93880 | 23151 ft | 389 kts | 213° |
| 2026-04-21 12:07 | -22.72765 | -46.95462 | 23146 ft | 390 kts | 213° |
| 2026-04-21 12:07 | -22.75067 | -46.97029 | 23051 ft | 391 kts | 213° |
| 2026-04-21 12:07 | -22.77368 | -46.98592 | 22492 ft | 392 kts | 213° |
| 2026-04-21 12:07 | -22.79629 | -47.00132 | 21967 ft | 391 kts | 213° |
| 2026-04-21 12:08 | -22.81917 | -47.01690 | 21461 ft | 388 kts | 213° |
| 2026-04-21 12:08 | -22.84171 | -47.03228 | 20977 ft | 386 kts | 213° |
| 2026-04-21 12:08 | -22.86465 | -47.04794 | 20482 ft | 383 kts | 213° |
| 2026-04-21 12:08 | -22.88716 | -47.06330 | 19971 ft | 381 kts | 213° |
| 2026-04-21 12:09 | -22.90961 | -47.07852 | 19229 ft | 386 kts | 212° |
| 2026-04-21 12:09 | -22.93269 | -47.09412 | 18462 ft | 390 kts | 212° |
| 2026-04-21 12:09 | -22.95503 | -47.10923 | 17719 ft | 393 kts | 212° |
| 2026-04-21 12:09 | -22.97814 | -47.12486 | 17097 ft | 391 kts | 212° |
| 2026-04-21 12:10 | -23.00122 | -47.14037 | 16456 ft | 390 kts | 210° |
| 2026-04-21 12:10 | -23.02619 | -47.15071 | 15967 ft | 384 kts | 189° |
| 2026-04-21 12:10 | -23.05279 | -47.15069 | 15505 ft | 378 kts | 171° |
| 2026-04-21 12:10 | -23.07848 | -47.14507 | 15089 ft | 372 kts | 168° |
| 2026-04-21 12:11 | -23.10352 | -47.13929 | 14599 ft | 369 kts | 168° |
| 2026-04-21 12:11 | -23.12879 | -47.13351 | 14086 ft | 366 kts | 168° |
| 2026-04-21 12:11 | -23.15352 | -47.12794 | 13604 ft | 363 kts | 168° |
| 2026-04-21 12:11 | -23.17831 | -47.12241 | 13129 ft | 359 kts | 168° |
| 2026-04-21 12:12 | -23.20271 | -47.11700 | 12781 ft | 352 kts | 168° |
| 2026-04-21 12:12 | -23.22652 | -47.11174 | 12434 ft | 345 kts | 168° |
| 2026-04-21 12:12 | -23.24954 | -47.10666 | 12178 ft | 335 kts | 168° |
| 2026-04-21 12:12 | -23.27221 | -47.10168 | 11884 ft | 328 kts | 168° |
| 2026-04-21 12:13 | -23.29448 | -47.09681 | 11538 ft | 323 kts | 168° |
| 2026-04-21 12:13 | -23.31651 | -47.09198 | 11196 ft | 318 kts | 167° |
| 2026-04-21 12:13 | -23.33813 | -47.08724 | 10860 ft | 313 kts | 167° |
| 2026-04-21 12:13 | -23.35950 | -47.08255 | 10533 ft | 308 kts | 167° |
| 2026-04-21 12:14 | -23.38043 | -47.07796 | 10212 ft | 303 kts | 167° |
| 2026-04-21 12:14 | -23.40076 | -47.07348 | 9892 ft | 299 kts | 166° |
| 2026-04-21 12:14 | -23.41966 | -47.06504 | 9532 ft | 293 kts | 141° |
| 2026-04-21 12:14 | -23.43180 | -47.04771 | 9189 ft | 289 kts | 111° |
| 2026-04-21 12:15 | -23.43713 | -47.02665 | 8895 ft | 284 kts | 105° |
| 2026-04-21 12:15 | -23.44201 | -47.00602 | 8585 ft | 277 kts | 105° |
| 2026-04-21 12:15 | -23.44692 | -46.98621 | 8190 ft | 267 kts | 105° |
| 2026-04-21 12:15 | -23.45176 | -46.96714 | 7694 ft | 259 kts | 106° |
| 2026-04-21 12:16 | -23.45650 | -46.94865 | 7251 ft | 249 kts | 106° |
| 2026-04-21 12:16 | -23.46104 | -46.93108 | 6664 ft | 242 kts | 105° |
| 2026-04-21 12:16 | -23.46568 | -46.91316 | 6332 ft | 247 kts | 105° |
| 2026-04-21 12:16 | -23.47040 | -46.89494 | 6012 ft | 247 kts | 105° |
| 2026-04-21 12:17 | -23.47497 | -46.87723 | 5704 ft | 247 kts | 105° |
| 2026-04-21 12:17 | -23.47962 | -46.85921 | 5465 ft | 238 kts | 105° |
| 2026-04-21 12:17 | -23.48393 | -46.84253 | 5447 ft | 227 kts | 105° |
| 2026-04-21 12:17 | -23.48823 | -46.82597 | 5446 ft | 227 kts | 105° |
| 2026-04-21 12:18 | -23.49246 | -46.80959 | 5435 ft | 219 kts | 105° |
| 2026-04-21 12:18 | -23.49647 | -46.79406 | 5347 ft | 208 kts | 105° |
| 2026-04-21 12:18 | -23.50033 | -46.77909 | 5264 ft | 200 kts | 105° |
| 2026-04-21 12:18 | -23.50396 | -46.76506 | 5151 ft | 183 kts | 105° |
| 2026-04-21 12:19 | -23.50725 | -46.75233 | 4980 ft | 168 kts | 105° |
| 2026-04-21 12:19 | -23.51059 | -46.74062 | 4733 ft | 160 kts | 118° |
| 2026-04-21 12:19 | -23.51789 | -46.73201 | 4634 ft | 151 kts | 141° |
| 2026-04-21 12:19 | -23.52636 | -46.72571 | 4653 ft | 146 kts | 145° |
| 2026-04-21 12:20 | -23.53508 | -46.71983 | 4487 ft | 144 kts | 146° |
| 2026-04-21 12:20 | -23.54365 | -46.71402 | 4312 ft | 143 kts | 146° |
| 2026-04-21 12:20 | -23.55197 | -46.70824 | 4139 ft | 143 kts | 142° |
| 2026-04-21 12:20 | -23.56035 | -46.70235 | 3968 ft | 143 kts | 146° |
| 2026-04-21 12:21 | -23.56891 | -46.69649 | 3786 ft | 142 kts | 146° |
| 2026-04-21 12:21 | -23.57726 | -46.69073 | 3602 ft | 142 kts | 145° |
| 2026-04-21 12:21 | -23.58560 | -46.68493 | 3423 ft | 142 kts | 146° |
| 2026-04-21 12:21 | -23.59393 | -46.67916 | 3246 ft | 141 kts | 148° |
| 2026-04-21 12:22 | -23.60227 | -46.67342 | 3063 ft | 141 kts | 146° |
| 2026-04-21 12:22 | -23.61048 | -46.66769 | 2896 ft | 140 kts | 147° |
| 2026-04-21 12:22 | -23.61880 | -46.66196 | 2720 ft | 140 kts | 147° |
| 2026-04-21 12:22 | -23.62680 | -46.65638 | 2664 ft | 124 kts | 147° |
| 2026-04-21 12:23 | -23.63163 | -46.65301 | 2672 ft | 46 kts | 147° |
| 2026-04-21 12:23 | -23.63339 | -46.65198 | 2672 ft | 21 kts | 179° |
| 2026-04-21 12:23 | -23.63409 | -46.65264 | 2668 ft | 2 kts | 297° |
| 2026-04-21 12:24 | -23.63409 | -46.65263 | 2668 ft | 0 kts | 297° |
| 2026-04-21 12:24 | -23.63394 | -46.65283 | 2669 ft | 7 kts | 319° |
| 2026-04-21 12:25 | -23.63332 | -46.65328 | 2672 ft | 13 kts | 328° |
| 2026-04-21 12:25 | -23.63239 | -46.65390 | 2672 ft | 17 kts | 327° |
| 2026-04-21 12:25 | -23.63132 | -46.65467 | 2672 ft | 17 kts | 326° |
| 2026-04-21 12:25 | -23.63026 | -46.65516 | 2671 ft | 17 kts | 347° |
| 2026-04-21 12:26 | -23.62916 | -46.65579 | 2669 ft | 19 kts | 327° |
| 2026-04-21 12:26 | -23.62796 | -46.65663 | 2665 ft | 20 kts | 328° |
| 2026-04-21 12:26 | -23.62699 | -46.65731 | 2661 ft | 7 kts | 322° |
| 2026-04-21 12:26 | -23.62699 | -46.65777 | 2659 ft | 6 kts | 241° |
| 2026-04-21 12:27 | -23.62714 | -46.65804 | 2658 ft | 3 kts | 238° |
| 2026-04-21 12:27 | -23.62723 | -46.65818 | 2658 ft | 0 kts | 236° |